createdAt,value
2022-10-17T00:02:33.528Z,101479.31
2022-10-17T00:05:44.565Z,101480.50
2022-10-17T00:08:47.145Z,101485.22
2022-10-17T00:11:50.010Z,101490.06
2022-10-17T00:14:52.558Z,101475.28
2022-10-17T00:17:55.473Z,101480.59
2022-10-17T00:20:58.122Z,101486.03
2022-10-17T00:24:01.560Z,101485.34
2022-10-17T00:27:04.282Z,101484.53
2022-10-17T00:30:11.422Z,101479.09
2022-10-17T00:33:13.995Z,101482.81
2022-10-17T00:36:20.766Z,101485.94
2022-10-17T00:39:23.494Z,101483.94
2022-10-17T00:42:27.332Z,101483.72
2022-10-17T00:45:31.407Z,101477.63
2022-10-17T00:48:34.405Z,101483.03
2022-10-17T00:52:02.045Z,101485.69
2022-10-17T00:55:18.649Z,101485.69
2022-10-17T00:58:21.588Z,101485.53
2022-10-17T01:01:24.534Z,101479.53
2022-10-17T01:04:27.664Z,101475.97
2022-10-17T01:07:34.711Z,101473.78
2022-10-17T01:10:55.271Z,101479.56
2022-10-17T01:14:09.161Z,101483.16
2022-10-17T01:17:39.864Z,101486.09
2022-10-17T01:21:11.884Z,101482.16
2022-10-17T01:24:42.273Z,101475.59
2022-10-17T01:28:03.490Z,101480.00
2022-10-17T01:31:37.781Z,101479.94
2022-10-17T01:34:58.385Z,101479.72
2022-10-17T01:38:18.632Z,101479.12
2022-10-17T01:41:35.970Z,101479.50
2022-10-17T01:44:57.182Z,101482.72
2022-10-17T01:48:05.966Z,101473.22
2022-10-17T01:51:14.669Z,101483.59
2022-10-17T01:54:42.676Z,101481.06
2022-10-17T01:57:51.106Z,101473.81
2022-10-17T02:00:56.614Z,101479.12
2022-10-17T02:04:02.337Z,101475.50
2022-10-17T02:07:09.738Z,101477.44
2022-10-17T02:10:25.870Z,101478.09
2022-10-17T02:13:47.192Z,101488.31
2022-10-17T02:16:55.990Z,101491.44
2022-10-17T02:20:20.266Z,101481.25
2022-10-17T02:23:56.345Z,101488.63
2022-10-17T02:27:14.857Z,101483.91
2022-10-17T02:30:29.562Z,101476.84
2022-10-17T02:33:40.815Z,101484.16
2022-10-17T02:36:52.022Z,101481.66
2022-10-17T02:39:57.727Z,101489.84
2022-10-17T02:43:03.514Z,101492.00
2022-10-17T02:46:08.188Z,101489.00
2022-10-17T02:49:30.909Z,101484.97
2022-10-17T02:52:53.126Z,101481.06
2022-10-17T02:56:00.326Z,101486.06
2022-10-17T02:59:06.162Z,101489.00
2022-10-17T03:02:08.761Z,101489.84
2022-10-17T03:05:13.822Z,101491.00
2022-10-17T03:08:16.425Z,101489.09
2022-10-17T03:11:19.287Z,101496.41
2022-10-17T03:14:21.902Z,101496.19
2022-10-17T03:17:24.958Z,101498.53
2022-10-17T03:20:28.167Z,101500.50
2022-10-17T03:23:30.957Z,101509.50
2022-10-17T03:26:33.773Z,101507.87
2022-10-17T03:29:37.307Z,101519.94
2022-10-17T03:32:40.469Z,101523.66
2022-10-17T03:35:44.150Z,101527.47
2022-10-17T03:38:48.083Z,101529.09
2022-10-17T03:41:51.864Z,101517.31
2022-10-17T03:44:54.438Z,101515.31
2022-10-17T03:48:01.413Z,101523.28
2022-10-17T03:51:07.991Z,101532.50
2022-10-17T03:54:12.472Z,101533.28
2022-10-17T03:57:15.186Z,101543.38
2022-10-17T04:00:18.401Z,101545.13
2022-10-17T04:03:25.441Z,101537.72
2022-10-17T04:06:27.952Z,101543.47
2022-10-17T04:09:30.896Z,101551.16
2022-10-17T04:12:33.799Z,101549.34
2022-10-17T04:15:36.658Z,101559.13
2022-10-17T04:18:40.472Z,101566.84
2022-10-17T04:21:43.342Z,101569.28
2022-10-17T04:24:45.921Z,101576.81
2022-10-17T04:27:49.377Z,101576.91
2022-10-17T04:31:03.529Z,101566.13
2022-10-17T04:34:07.459Z,101585.78
2022-10-17T04:37:10.398Z,101571.94
2022-10-17T04:40:13.543Z,101568.38
2022-10-17T04:43:16.438Z,101571.63
2022-10-17T04:46:20.624Z,101570.06
2022-10-17T04:49:23.583Z,101572.22
2022-10-17T04:52:28.114Z,101578.22
2022-10-17T04:55:30.914Z,101580.53
2022-10-17T04:58:33.813Z,101590.38
2022-10-17T05:01:36.515Z,101594.16
2022-10-17T05:04:39.567Z,101588.16
2022-10-17T05:07:42.597Z,101597.72
2022-10-17T05:10:46.355Z,101600.19
2022-10-17T05:13:54.492Z,101596.69
2022-10-17T05:16:57.904Z,101612.00
2022-10-17T05:20:00.998Z,101610.06
2022-10-17T05:23:05.110Z,101616.63
2022-10-17T05:26:09.961Z,101616.53
2022-10-17T05:29:13.265Z,101625.09
2022-10-17T05:32:16.728Z,101635.09
2022-10-17T05:35:20.025Z,101631.00
2022-10-17T05:38:23.174Z,101641.06
2022-10-17T05:41:26.229Z,101638.22
2022-10-17T05:44:29.186Z,101645.06
2022-10-17T05:47:32.662Z,101651.41
2022-10-17T05:50:36.292Z,101660.22
2022-10-17T05:53:41.812Z,101662.03
2022-10-17T05:56:46.001Z,101663.63
2022-10-17T05:59:49.977Z,101669.94
2022-10-17T06:02:53.932Z,101683.22
2022-10-17T06:06:07.410Z,101676.09
2022-10-17T06:09:10.964Z,101685.03
2022-10-17T06:12:14.158Z,101685.19
2022-10-17T06:15:17.468Z,101689.72
2022-10-17T06:18:23.611Z,101697.63
2022-10-17T06:21:27.609Z,101704.22
2022-10-17T06:24:31.545Z,101706.25
2022-10-17T06:27:37.863Z,101706.25
2022-10-17T06:30:41.879Z,101705.19
2022-10-17T06:33:44.661Z,101708.72
2022-10-17T06:36:49.539Z,101718.00
2022-10-17T06:39:53.543Z,101725.28
2022-10-17T06:42:57.559Z,101720.88
2022-10-17T06:46:00.344Z,101724.38
2022-10-17T06:49:05.273Z,101723.88
2022-10-17T06:52:13.197Z,101726.50
2022-10-17T06:55:19.588Z,101722.00
2022-10-17T06:58:25.569Z,101729.75
2022-10-17T07:01:31.575Z,101730.59
2022-10-17T07:04:34.613Z,101730.00
2022-10-17T07:07:43.071Z,101740.81
2022-10-17T07:10:48.424Z,101738.34
2022-10-17T07:13:51.407Z,101737.97
2022-10-17T07:16:54.270Z,101745.44
2022-10-17T07:19:58.424Z,101749.19
2022-10-17T07:23:01.712Z,101754.41
2022-10-17T08:47:20.887Z,101776.84
2022-10-17T08:50:36.507Z,101777.66
2022-10-17T08:54:15.096Z,101782.13
2022-10-17T08:57:26.888Z,101789.56
2022-10-17T09:01:24.400Z,101786.00
2022-10-17T09:05:16.388Z,101786.16
2022-10-17T09:08:32.041Z,101783.41
2022-10-17T09:11:41.979Z,101784.12
2022-10-17T09:14:44.602Z,101785.13
2022-10-17T09:18:27.789Z,101785.34
2022-10-17T09:21:47.596Z,101783.28
2022-10-17T09:24:57.363Z,101785.66
2022-10-17T09:28:23.704Z,101781.66
2022-10-17T09:31:34.972Z,101779.03
2022-10-17T09:34:56.938Z,101786.56
2022-10-17T09:38:23.244Z,101786.37
2022-10-17T09:41:47.231Z,101782.56
2022-10-17T09:45:26.097Z,101787.88
2022-10-17T09:49:19.961Z,101789.66
2022-10-17T09:52:35.253Z,101789.47
2022-10-17T09:55:43.670Z,101791.88
2022-10-17T09:58:54.554Z,101787.34
2022-10-17T10:02:21.776Z,101780.47
2022-10-17T10:05:24.877Z,101779.13
2022-10-17T10:08:31.281Z,101776.53
2022-10-17T10:12:17.868Z,101782.56
2022-10-17T10:15:44.365Z,101773.91
2022-10-17T10:18:50.139Z,101776.09
2022-10-17T10:21:59.534Z,101773.47
2022-10-17T10:25:13.820Z,101778.50
2022-10-17T10:28:17.748Z,101782.41
2022-10-17T10:31:28.524Z,101774.00
2022-10-17T10:34:32.763Z,101773.81
2022-10-17T10:37:46.303Z,101774.00
2022-10-17T10:40:53.182Z,101772.56
2022-10-17T10:43:57.690Z,101777.00
2022-10-17T10:47:22.982Z,101770.72
2022-10-17T10:50:44.400Z,101766.91
2022-10-17T10:54:10.834Z,101776.16
2022-10-17T10:57:20.827Z,101767.69
2022-10-17T11:00:27.862Z,101760.84
2022-10-17T11:03:50.355Z,101755.16
2022-10-17T11:10:56.455Z,101752.75
2022-10-17T11:14:14.575Z,101742.53
2022-10-17T11:17:35.823Z,101753.19
2022-10-17T11:20:58.230Z,101737.25
2022-10-17T11:24:17.847Z,101747.31
2022-10-17T11:27:40.471Z,101738.87
2022-10-17T11:31:07.079Z,101735.81
2022-10-17T11:34:21.039Z,101736.91
2022-10-17T11:37:40.244Z,101733.66
2022-10-17T11:40:55.381Z,101733.62
2022-10-17T11:44:21.202Z,101729.06
2022-10-17T11:47:49.508Z,101727.59
2022-10-17T11:54:45.805Z,101730.44
2022-10-17T11:58:12.726Z,101724.06
2022-10-17T12:01:30.396Z,101726.66
2022-10-17T12:04:52.987Z,101720.84
2022-10-17T12:08:13.526Z,101714.91
2022-10-17T12:11:50.717Z,101710.53
2022-10-17T12:14:54.005Z,101710.53
2022-10-17T12:17:57.062Z,101707.66
2022-10-17T12:21:01.147Z,101707.97
2022-10-17T12:24:04.586Z,101702.22
2022-10-17T12:27:46.124Z,101700.00
2022-10-17T12:30:52.809Z,101697.66
2022-10-17T12:34:00.608Z,101697.34
2022-10-17T12:37:03.673Z,101685.81
2022-10-17T12:40:35.168Z,101684.34
2022-10-17T12:43:47.364Z,101690.13
2022-10-17T12:46:51.016Z,101684.06
2022-10-17T12:49:56.633Z,101686.06
2022-10-17T12:53:07.190Z,101683.50
2022-10-17T12:56:10.246Z,101678.28
2022-10-17T12:59:26.074Z,101674.16
2022-10-17T13:02:31.473Z,101673.81
2022-10-17T13:05:42.483Z,101671.94
2022-10-17T13:09:29.549Z,101673.69
2022-10-17T13:12:41.219Z,101665.66
2022-10-17T13:15:53.915Z,101669.94
2022-10-17T13:18:58.513Z,101667.37
2022-10-17T13:22:06.845Z,101668.38
2022-10-17T13:25:18.896Z,101672.03
2022-10-17T13:28:21.907Z,101667.09
2022-10-17T13:31:33.540Z,101667.41
2022-10-17T13:34:36.442Z,101661.66
2022-10-17T13:37:43.988Z,101660.06
2022-10-17T13:41:16.881Z,101659.25
2022-10-17T13:44:30.536Z,101652.50
2022-10-17T13:48:23.735Z,101652.53
2022-10-17T13:51:52.688Z,101658.47
2022-10-17T13:55:05.775Z,101655.41
2022-10-17T13:58:17.769Z,101656.06
2022-10-17T14:01:21.823Z,101658.47
2022-10-17T14:04:24.853Z,101649.94
2022-10-17T14:08:10.157Z,101656.97
2022-10-17T14:11:30.714Z,101654.72
2022-10-17T14:14:46.393Z,101655.78
2022-10-17T14:17:58.123Z,101644.97
2022-10-17T14:24:24.416Z,101645.09
2022-10-17T14:27:38.127Z,101645.25
2022-10-17T14:30:56.643Z,101638.06
2022-10-17T14:34:01.791Z,101645.72
2022-10-17T14:37:27.420Z,101647.59
2022-10-17T14:40:32.809Z,101654.78
2022-10-17T14:43:35.874Z,101654.25
2022-10-17T14:46:48.461Z,101651.06
2022-10-17T14:50:23.661Z,101650.44
2022-10-17T14:53:30.102Z,101643.56
2022-10-17T14:56:41.562Z,101647.16
2022-10-17T14:59:59.655Z,101656.22
2022-10-17T15:03:02.582Z,101649.53
2022-10-17T15:06:20.635Z,101645.38
2022-10-17T15:09:24.016Z,101648.13
2022-10-17T15:12:26.849Z,101653.66
2022-10-17T15:15:31.710Z,101660.72
2022-10-17T15:18:34.324Z,101652.28
2022-10-17T15:21:41.814Z,101644.00
2022-10-17T15:24:49.309Z,101652.09
2022-10-17T15:27:53.373Z,101654.69
2022-10-17T15:30:56.103Z,101658.16
2022-10-17T15:33:59.017Z,101660.91
2022-10-17T15:37:01.818Z,101657.06
2022-10-17T15:40:06.306Z,101656.59
2022-10-17T15:43:09.683Z,101651.31
2022-10-17T15:46:20.066Z,101649.63
2022-10-17T15:49:22.852Z,101652.84
2022-10-17T15:52:26.195Z,101658.62
2022-10-17T15:55:29.050Z,101663.75
2022-10-17T15:58:52.749Z,101665.22
2022-10-17T16:01:58.292Z,101662.31
2022-10-17T16:05:01.894Z,101661.03
2022-10-17T16:08:24.589Z,101677.81
2022-10-17T16:11:27.387Z,101677.19
2022-10-17T16:14:32.410Z,101675.00
2022-10-17T16:17:35.379Z,101678.66
2022-10-17T16:20:40.194Z,101675.25
2022-10-17T16:23:44.088Z,101678.13
2022-10-17T16:26:46.704Z,101675.19
2022-10-17T16:29:49.673Z,101687.84
2022-10-17T16:32:53.814Z,101681.06
2022-10-17T16:35:56.828Z,101688.34
2022-10-17T16:38:59.581Z,101686.31
2022-10-17T16:42:02.454Z,101696.00
2022-10-17T16:45:05.770Z,101694.16
2022-10-17T16:48:09.766Z,101697.91
2022-10-17T16:51:14.031Z,101696.59
2022-10-17T16:54:17.046Z,101695.00
2022-10-17T16:57:20.390Z,101696.66
2022-10-17T17:00:23.410Z,101692.59
2022-10-17T17:03:26.150Z,101693.16
2022-10-17T17:06:29.569Z,101692.09
2022-10-17T17:09:32.348Z,101704.41
2022-10-17T17:12:36.457Z,101694.19
2022-10-17T17:15:54.363Z,101692.84
2022-10-17T17:19:10.260Z,101707.03
2022-10-17T17:22:12.845Z,101703.75
2022-10-17T17:25:15.859Z,101715.78
2022-10-17T17:28:18.600Z,101706.91
2022-10-17T17:31:25.419Z,101702.88
2022-10-17T17:34:28.025Z,101709.47
2022-10-17T17:37:31.347Z,101708.91
2022-10-17T17:40:36.967Z,101704.81
2022-10-17T17:43:41.003Z,101700.56
2022-10-17T17:46:43.782Z,101706.16
2022-10-17T17:49:47.061Z,101700.25
2022-10-17T17:52:51.186Z,101700.69
2022-10-17T17:56:04.834Z,101705.53
2022-10-17T17:59:07.642Z,101704.41
2022-10-17T18:02:11.206Z,101705.53
2022-10-17T18:05:14.206Z,101703.16
2022-10-17T18:08:16.828Z,101704.81
2022-10-17T18:11:22.066Z,101704.56
2022-10-17T18:14:25.611Z,101704.81
2022-10-17T18:17:28.502Z,101708.84
2022-10-17T18:20:31.724Z,101710.66
2022-10-17T18:23:42.000Z,101708.72
2022-10-17T18:26:44.623Z,101711.94
2022-10-17T18:29:47.622Z,101709.03
2022-10-17T18:32:50.179Z,101710.94
2022-10-17T18:35:55.987Z,101709.84
2022-10-17T18:39:01.498Z,101707.69
2022-10-17T18:42:04.517Z,101702.31
2022-10-17T18:45:07.925Z,101703.91
2022-10-17T18:48:10.858Z,101715.97
2022-10-17T18:51:16.748Z,101707.38
2022-10-17T18:54:22.206Z,101704.41
2022-10-17T18:57:26.229Z,101706.53
2022-10-17T19:00:30.405Z,101710.56
2022-10-17T19:03:33.104Z,101704.63
2022-10-17T19:06:36.385Z,101702.22
2022-10-17T19:13:11.741Z,101710.25
2022-10-17T19:16:19.828Z,101706.16
2022-10-17T19:19:25.689Z,101702.69
2022-10-17T19:22:30.378Z,101699.88
2022-10-17T19:25:33.799Z,101695.41
2022-10-17T19:28:38.894Z,101702.16
2022-10-17T19:31:42.236Z,101710.94
2022-10-17T19:34:45.431Z,101707.44
2022-10-17T19:37:48.098Z,101708.59
2022-10-17T19:40:52.155Z,101707.56
2022-10-17T19:43:54.907Z,101709.84
2022-10-17T19:46:57.788Z,101704.84
2022-10-17T19:50:00.577Z,101704.81
2022-10-17T19:53:03.550Z,101710.00
2022-10-17T19:56:06.684Z,101704.25
2022-10-17T19:59:12.763Z,101706.59
2022-10-17T20:02:15.541Z,101704.56
2022-10-17T20:05:19.316Z,101704.19
2022-10-17T20:08:23.370Z,101712.13
2022-10-17T20:11:28.298Z,101699.59
2022-10-17T20:14:30.823Z,101703.97
2022-10-17T20:20:37.991Z,101698.88
2022-10-17T20:23:41.199Z,101698.53
2022-10-17T20:26:44.538Z,101695.63
2022-10-17T20:29:47.798Z,101705.53
2022-10-17T20:32:55.252Z,101703.00
2022-10-17T20:35:58.350Z,101709.13
2022-10-17T20:39:00.893Z,101695.00
2022-10-17T20:42:03.791Z,101712.09
2022-10-17T20:45:07.222Z,101706.94
2022-10-17T20:48:15.541Z,101707.44
2022-10-17T20:51:18.310Z,101702.72
2022-10-17T20:54:22.371Z,101703.69
2022-10-17T20:57:24.960Z,101698.81
2022-10-17T21:00:27.801Z,101700.72
2022-10-17T21:03:30.378Z,101694.37
2022-10-17T21:06:33.366Z,101691.13
2022-10-17T21:09:36.001Z,101689.00
2022-10-17T21:12:53.053Z,101696.34
2022-10-17T21:15:56.155Z,101697.81
2022-10-17T21:18:59.976Z,101699.19
2022-10-17T21:22:02.533Z,101709.50
2022-10-17T21:25:06.116Z,101705.22
2022-10-17T21:28:08.625Z,101696.91
2022-10-17T21:31:14.496Z,101700.75
2022-10-17T21:34:21.012Z,101707.72
2022-10-17T21:37:23.907Z,101701.44
2022-10-17T21:40:26.732Z,101699.75
2022-10-17T21:43:29.529Z,101705.19
2022-10-17T21:46:32.897Z,101701.37
2022-10-17T21:49:35.882Z,101703.47
2022-10-17T21:52:38.543Z,101703.47
2022-10-17T21:55:41.376Z,101700.69
2022-10-17T21:58:44.851Z,101697.94
2022-10-17T22:01:47.941Z,101692.47
2022-10-17T22:04:51.003Z,101693.88
2022-10-17T22:07:53.517Z,101693.06
2022-10-17T22:10:58.627Z,101696.03
2022-10-17T22:14:05.430Z,101689.94
2022-10-17T22:17:08.312Z,101686.56
2022-10-17T22:20:13.923Z,101694.19
2022-10-17T22:23:16.815Z,101693.34
2022-10-17T22:26:19.444Z,101689.97
2022-10-17T22:29:22.397Z,101689.84
2022-10-17T22:32:24.975Z,101683.38
2022-10-17T22:35:27.818Z,101685.22
2022-10-17T22:38:30.695Z,101689.41
2022-10-17T22:41:33.706Z,101689.62
2022-10-17T22:44:36.261Z,101688.09
2022-10-17T22:47:39.176Z,101688.22
2022-10-17T22:50:41.869Z,101685.34
2022-10-17T22:53:44.758Z,101685.22
2022-10-17T22:56:47.279Z,101675.97
2022-10-17T22:59:50.117Z,101677.69
2022-10-17T23:02:56.084Z,101679.41
2022-10-17T23:05:59.585Z,101676.28
2022-10-17T23:09:02.214Z,101668.84
2022-10-17T23:12:05.212Z,101673.19
2022-10-17T23:15:08.443Z,101667.34
2022-10-17T23:18:11.397Z,101663.44
2022-10-17T23:21:14.123Z,101664.03
2022-10-17T23:24:17.221Z,101668.44
2022-10-17T23:27:19.781Z,101663.78
2022-10-17T23:30:25.607Z,101668.44
2022-10-17T23:33:28.283Z,101656.97
2022-10-17T23:39:34.676Z,101657.19
2022-10-17T23:42:37.569Z,101654.03
2022-10-17T23:48:48.152Z,101647.50
2022-10-17T23:51:50.830Z,101646.22
2022-10-17T23:54:53.971Z,101646.41
2022-10-17T23:57:56.641Z,101636.31
